Time;durP1;ratioP1;P1;durP2;ratioP2;P2;SDS_P1;SDS_P2;PMS_P1;PMS_P2;Temp;Humidity;BMP_temperature;BMP_pressure;BME280_temperature;BME280_humidity;BME280_pressure;Samples;Min_cycle;Max_cycle;Signal;HPM_P1;HPM_P2
2023/12/08 00:00:25;;;;;;;4.25;3.95;;;3.70;99.90;;;;;;4964257;28;20101;-76
2023/12/08 00:02:50;;;;;;;4.45;4.15;;;3.70;99.90;;;;;;4962596;28;20043;-76
2023/12/08 00:05:16;;;;;;;5.53;4.15;;;3.70;99.90;;;;;;4965307;28;20027;-76
2023/12/08 00:07:41;;;;;;;3.90;3.58;;;3.70;99.90;;;;;;4961709;28;20028;-76
2023/12/08 00:10:07;;;;;;;4.25;3.70;;;3.70;99.90;;;;;;4948266;28;20038;-76
2023/12/08 00:12:33;;;;;;;4.05;3.75;;;3.70;99.90;;;;;;4955649;28;20046;-77
2023/12/08 00:14:59;;;;;;;4.13;3.80;;;3.70;99.90;;;;;;4963291;28;20117;-76
2023/12/08 00:17:24;;;;;;;4.80;4.40;;;3.70;99.90;;;;;;4964365;28;20077;-77
2023/12/08 00:19:51;;;;;;;4.38;4.07;;;3.70;99.90;;;;;;4962082;28;20110;-77
2023/12/08 00:22:17;;;;;;;5.40;4.43;;;3.70;99.90;;;;;;4947571;28;20023;-76
2023/12/08 00:24:43;;;;;;;4.32;4.03;;;3.70;99.90;;;;;;4964842;28;20031;-76
2023/12/08 00:27:09;;;;;;;4.50;4.10;;;3.70;99.90;;;;;;4947280;28;20461;-76
2023/12/08 00:29:34;;;;;;;4.70;4.30;;;3.70;99.90;;;;;;4962548;28;20035;-76
2023/12/08 00:32:00;;;;;;;4.93;4.18;;;3.70;99.90;;;;;;4950775;28;20142;-76
2023/12/08 00:34:26;;;;;;;6.85;4.38;;;3.70;99.90;;;;;;4954151;28;20034;-77
2023/12/08 00:36:51;;;;;;;4.65;4.32;;;3.70;99.90;;;;;;4948673;28;20130;-76
2023/12/08 00:39:17;;;;;;;4.78;4.40;;;3.60;99.90;;;;;;4964888;28;20474;-76
2023/12/08 00:41:43;;;;;;;4.88;4.45;;;3.60;99.90;;;;;;4968253;28;20035;-76
2023/12/08 00:44:08;;;;;;;4.85;4.28;;;3.60;99.90;;;;;;4964905;28;20034;-76
2023/12/08 00:46:34;;;;;;;7.05;4.57;;;3.60;99.90;;;;;;4965169;28;20031;-76
2023/12/08 00:49:00;;;;;;;4.60;4.18;;;3.60;99.90;;;;;;4965345;28;20019;-76
2023/12/08 00:51:25;;;;;;;5.18;4.70;;;3.60;99.90;;;;;;4966269;28;20026;-76
2023/12/08 00:53:51;;;;;;;4.63;4.22;;;3.60;99.90;;;;;;4950184;28;20034;-76
2023/12/08 00:56:17;;;;;;;4.85;4.45;;;3.70;99.90;;;;;;4965483;28;20101;-76
2023/12/08 00:58:43;;;;;;;7.70;4.57;;;3.70;99.90;;;;;;4968515;28;20401;-76
2023/12/08 01:01:09;;;;;;;5.15;4.43;;;3.70;99.90;;;;;;4964336;28;20035;-76
2023/12/08 01:03:35;;;;;;;5.28;4.78;;;3.70;99.90;;;;;;4966670;28;20031;-76
2023/12/08 01:06:01;;;;;;;5.35;4.60;;;3.70;99.90;;;;;;4967987;28;20026;-76
2023/12/08 01:08:26;;;;;;;4.72;4.30;;;3.70;99.90;;;;;;4968434;28;20027;-76
2023/12/08 01:10:52;;;;;;;5.53;4.07;;;3.80;99.90;;;;;;4971700;28;20031;-76
2023/12/08 01:13:19;;;;;;;5.00;4.60;;;3.80;99.90;;;;;;4980348;28;20038;-76
2023/12/08 01:15:45;;;;;;;6.03;4.68;;;3.80;99.90;;;;;;4967933;28;20019;-77
2023/12/08 01:18:11;;;;;;;4.50;4.20;;;3.80;99.90;;;;;;4955421;29;20517;-77
2023/12/08 01:20:36;;;;;;;4.63;4.30;;;3.80;99.90;;;;;;4967758;28;20110;-76
2023/12/08 01:23:02;;;;;;;5.00;4.60;;;3.80;99.90;;;;;;4971564;28;20035;-76
2023/12/08 01:25:27;;;;;;;5.70;5.13;;;3.80;99.90;;;;;;4965893;28;20030;-77
2023/12/08 01:27:54;;;;;;;5.30;4.53;;;3.80;99.90;;;;;;4968473;28;20029;-76
2023/12/08 01:30:20;;;;;;;4.80;4.40;;;3.80;99.90;;;;;;4965500;28;20022;-76
2023/12/08 01:32:45;;;;;;;5.82;4.68;;;3.80;99.90;;;;;;4974359;28;20055;-76
2023/12/08 01:35:11;;;;;;;5.07;4.68;;;3.80;99.90;;;;;;4955142;29;20023;-77
2023/12/08 01:37:37;;;;;;;4.43;4.10;;;3.80;1.00;;;;;;4971391;28;20038;-76
2023/12/08 01:40:03;;;;;;;5.10;4.70;;;3.90;1.00;;;;;;4968104;28;20046;-76
2023/12/08 01:42:29;;;;;;;5.78;5.05;;;3.80;1.00;;;;;;4966387;28;20031;-76
2023/12/08 01:44:54;;;;;;;5.93;5.30;;;3.80;1.00;;;;;;4966023;28;20074;-76
2023/12/08 01:47:20;;;;;;;5.10;4.70;;;3.70;1.00;;;;;;4968711;28;20033;-76
2023/12/08 01:49:46;;;;;;;5.50;5.10;;;3.70;1.00;;;;;;4966785;28;20366;-76
2023/12/08 01:52:20;;;;;;;5.90;5.40;;;3.80;1.00;;;;;;4963925;28;20042;-76
2023/12/08 01:54:46;;;;;;;5.10;4.60;;;3.80;1.00;;;;;;4966591;28;20106;-76
2023/12/08 01:57:11;;;;;;;5.30;4.78;;;3.70;1.00;;;;;;4967665;28;20453;-76
2023/12/08 01:59:37;;;;;;;5.28;4.72;;;3.80;1.00;;;;;;4957902;28;20489;-76
2023/12/08 02:02:04;;;;;;;6.13;5.53;;;3.80;1.00;;;;;;4967839;28;20031;-76
2023/12/08 02:04:29;;;;;;;5.55;5.05;;;3.80;1.00;;;;;;4967989;28;20027;-76
2023/12/08 02:06:57;;;;;;;5.65;5.10;;;3.80;1.00;;;;;;4967120;28;20448;-76
2023/12/08 02:09:23;;;;;;;10.48;5.22;;;3.80;1.00;;;;;;4969189;28;20035;-77
2023/12/08 02:11:49;;;;;;;5.10;4.70;;;3.80;1.00;;;;;;4974375;28;20133;-76
2023/12/08 02:14:15;;;;;;;5.68;5.00;;;3.80;1.00;;;;;;4965970;28;20090;-76
2023/12/08 02:16:54;;;;;;;5.45;5.00;;;3.80;1.00;;;;;;4967614;28;20037;-77
2023/12/08 02:19:20;;;;;;;7.07;4.80;;;3.80;1.00;;;;;;4965020;28;20031;-76
2023/12/08 02:21:46;;;;;;;5.45;4.95;;;3.80;1.00;;;;;;4969480;28;20042;-76
2023/12/08 02:24:12;;;;;;;7.60;6.25;;;3.80;1.00;;;;;;4970080;28;20032;-76
2023/12/08 02:26:37;;;;;;;5.93;5.32;;;3.80;1.00;;;;;;4970714;28;20034;-76
2023/12/08 02:29:08;;;;;;;7.55;5.72;;;3.90;1.00;;;;;;4949160;28;20389;-76
2023/12/08 02:31:44;;;;;;;7.70;5.50;;;3.90;1.00;;;;;;4968037;28;20026;-76
2023/12/08 02:34:11;;;;;;;6.18;5.68;;;3.90;99.90;;;;;;4963288;28;20041;-76
2023/12/08 02:36:38;;;;;;;6.88;6.18;;;3.90;1.00;;;;;;4970055;28;20030;-76
2023/12/08 02:39:06;;;;;;;7.65;5.68;;;4.00;99.90;;;;;;4964060;28;20042;-77
2023/12/08 02:41:32;;;;;;;6.00;5.50;;;4.00;1.00;;;;;;4969414;28;20027;-76
2023/12/08 02:43:58;;;;;;;6.13;5.53;;;4.00;1.00;;;;;;4971308;28;20382;-76
2023/12/08 02:46:23;;;;;;;6.53;5.93;;;4.00;1.00;;;;;;4965858;28;20027;-76
2023/12/08 02:48:49;;;;;;;6.55;5.95;;;4.00;1.00;;;;;;4968590;28;20026;-76
2023/12/08 02:51:17;;;;;;;7.25;6.07;;;4.10;1.00;;;;;;4969686;28;20418;-76
2023/12/08 02:53:43;;;;;;;6.07;5.57;;;4.10;99.90;;;;;;4966301;28;20418;-76
2023/12/08 02:56:09;;;;;;;6.32;5.72;;;4.10;1.00;;;;;;4965805;28;20033;-76
2023/12/08 02:58:34;;;;;;;7.65;6.55;;;4.10;99.90;;;;;;4966840;28;20028;-76
2023/12/08 03:01:01;;;;;;;5.68;5.18;;;4.10;99.90;;;;;;4965562;28;20033;-76
2023/12/08 03:03:26;;;;;;;6.40;5.80;;;4.10;99.90;;;;;;4954473;28;20030;-76
2023/12/08 03:05:52;;;;;;;6.22;5.72;;;4.10;99.90;;;;;;4964949;28;20432;-76
2023/12/08 03:08:17;;;;;;;7.13;6.22;;;4.10;1.00;;;;;;4956264;28;20073;-77
2023/12/08 03:10:43;;;;;;;6.40;5.80;;;4.10;1.00;;;;;;4968336;28;20023;-76
2023/12/08 03:13:09;;;;;;;8.52;6.00;;;4.10;1.00;;;;;;4956440;28;20031;-76
2023/12/08 03:15:34;;;;;;;6.43;5.82;;;4.20;1.00;;;;;;4965660;28;20093;-76
2023/12/08 03:18:00;;;;;;;6.97;6.20;;;4.10;1.00;;;;;;4950294;28;20478;-76
2023/12/08 03:20:25;;;;;;;7.10;5.95;;;4.10;1.00;;;;;;4955683;28;20042;-76
2023/12/08 03:22:51;;;;;;;9.00;6.00;;;4.10;1.00;;;;;;4966983;28;20031;-77
2023/12/08 03:25:17;;;;;;;7.30;6.25;;;4.10;1.00;;;;;;4963412;28;20470;-77
2023/12/08 03:27:42;;;;;;;6.95;6.25;;;4.20;1.00;;;;;;4967074;28;20039;-77
2023/12/08 03:30:11;;;;;;;6.78;6.10;;;4.20;1.00;;;;;;4945287;28;20079;-76
2023/12/08 03:32:36;;;;;;;7.18;6.47;;;4.30;1.00;;;;;;4968368;28;20054;-76
2023/12/08 03:35:02;;;;;;;6.85;6.18;;;4.20;1.00;;;;;;4961642;28;20031;-76
2023/12/08 03:37:28;;;;;;;7.22;6.53;;;4.30;1.00;;;;;;4965359;28;20034;-77
2023/12/08 03:39:54;;;;;;;7.60;6.90;;;4.30;1.00;;;;;;4968094;28;20089;-76
2023/12/08 03:42:19;;;;;;;7.40;6.65;;;4.30;1.00;;;;;;4970893;28;20034;-76
2023/12/08 03:44:45;;;;;;;6.93;6.22;;;4.30;1.00;;;;;;4963270;28;20031;-76
2023/12/08 03:47:11;;;;;;;6.75;6.15;;;4.30;1.00;;;;;;4965145;28;20023;-76
2023/12/08 03:49:36;;;;;;;7.40;6.03;;;4.30;1.00;;;;;;4965294;28;20164;-77
2023/12/08 03:52:02;;;;;;;8.98;6.00;;;4.30;1.00;;;;;;4950491;28;20098;-76
2023/12/08 03:54:28;;;;;;;6.90;6.15;;;4.30;1.00;;;;;;4965959;28;20024;-76
2023/12/08 03:56:53;;;;;;;6.72;6.10;;;4.30;1.00;;;;;;4965493;28;20114;-76
2023/12/08 03:59:19;;;;;;;7.18;6.50;;;4.30;1.00;;;;;;4961951;28;20073;-76
2023/12/08 04:01:45;;;;;;;6.70;5.95;;;4.30;1.00;;;;;;4966638;28;20502;-76
2023/12/08 04:04:11;;;;;;;7.20;6.50;;;4.30;1.00;;;;;;4964419;28;20480;-76
2023/12/08 04:06:36;;;;;;;11.60;8.18;;;4.30;1.00;;;;;;4955483;28;20480;-76
2023/12/08 04:09:02;;;;;;;11.35;9.45;;;4.20;1.00;;;;;;4963936;28;20211;-76
2023/12/08 04:11:28;;;;;;;10.75;9.65;;;4.20;1.00;;;;;;4971515;28;20125;-76
2023/12/08 04:13:53;;;;;;;10.50;9.02;;;4.20;1.00;;;;;;4962635;28;20093;-76
2023/12/08 04:16:19;;;;;;;11.00;8.75;;;4.10;1.00;;;;;;4966313;28;20370;-76
2023/12/08 04:18:45;;;;;;;9.52;8.63;;;4.00;1.00;;;;;;4966048;28;20081;-77
2023/12/08 04:21:16;;;;;;;10.68;9.25;;;3.90;1.00;;;;;;4948013;28;20041;-76
2023/12/08 04:23:42;;;;;;;10.32;8.75;;;3.80;4.60;;;;;;4963758;28;20065;-77
2023/12/08 04:26:08;;;;;;;10.85;9.73;;;3.80;13.50;;;;;;4964513;28;20039;-76
2023/12/08 04:28:33;;;;;;;14.35;10.93;;;3.70;22.40;;;;;;4966653;28;20030;-77
2023/12/08 04:30:59;;;;;;;15.32;11.55;;;3.70;34.40;;;;;;4964658;28;20085;-77
2023/12/08 04:33:24;;;;;;;12.93;10.63;;;3.60;33.10;;;;;;4970170;28;20051;-76
2023/12/08 04:35:50;;;;;;;13.27;9.93;;;3.60;30.60;;;;;;4967054;28;20033;-76
2023/12/08 04:38:16;;;;;;;11.13;9.20;;;3.60;24.60;;;;;;4967234;28;20031;-77
2023/12/08 04:40:41;;;;;;;9.52;8.57;;;3.70;21.60;;;;;;4969194;28;20007;-76
2023/12/08 04:43:07;;;;;;;10.05;7.75;;;3.70;18.60;;;;;;4968086;28;20450;-76
2023/12/08 04:45:33;;;;;;;8.93;7.50;;;3.80;16.00;;;;;;4968588;28;20431;-76
2023/12/08 04:47:58;;;;;;;7.85;7.10;;;3.80;14.20;;;;;;4967664;28;20509;-76
2023/12/08 04:50:24;;;;;;;7.97;6.95;;;3.80;15.40;;;;;;4968556;28;20026;-76
2023/12/08 04:52:49;;;;;;;8.05;7.25;;;3.80;19.50;;;;;;4972266;28;20051;-76
2023/12/08 04:55:15;;;;;;;9.43;7.00;;;3.90;11.70;;;;;;4962311;28;20564;-76
2023/12/08 04:57:41;;;;;;;7.93;6.72;;;3.90;10.50;;;;;;4970025;28;20038;-76
2023/12/08 05:00:07;;;;;;;7.07;6.38;;;3.90;7.90;;;;;;4968406;28;20031;-76
2023/12/08 05:02:33;;;;;;;8.02;6.45;;;3.90;3.70;;;;;;4970508;28;20057;-76
2023/12/08 05:04:58;;;;;;;9.05;6.93;;;3.90;4.40;;;;;;4964470;28;20481;-76
2023/12/08 05:07:25;;;;;;;8.05;7.18;;;3.90;3.40;;;;;;4968092;28;20019;-76
2023/12/08 05:09:51;;;;;;;7.60;6.90;;;3.90;2.50;;;;;;4971276;28;20074;-77
2023/12/08 05:12:17;;;;;;;7.43;6.72;;;3.90;3.10;;;;;;4956230;28;20055;-76
2023/12/08 05:14:42;;;;;;;8.10;7.30;;;3.90;1.00;;;;;;4949262;28;20027;-76
2023/12/08 05:17:08;;;;;;;7.40;6.70;;;3.90;1.00;;;;;;4969911;28;20370;-76
2023/12/08 05:19:34;;;;;;;10.50;7.13;;;4.00;1.00;;;;;;4969231;28;20027;-76
2023/12/08 05:22:01;;;;;;;8.05;7.28;;;4.00;1.00;;;;;;4970679;28;20023;-76
2023/12/08 05:24:26;;;;;;;9.98;7.70;;;4.10;1.00;;;;;;4965649;28;20481;-77
2023/12/08 05:26:52;;;;;;;8.43;7.63;;;4.10;1.00;;;;;;4967155;28;20086;-77
2023/12/08 05:29:17;;;;;;;10.57;8.77;;;4.00;5.80;;;;;;4966649;28;20062;-76
2023/12/08 05:31:43;;;;;;;12.27;9.48;;;4.00;5.00;;;;;;4965939;28;20405;-76
2023/12/08 05:34:09;;;;;;;11.52;8.82;;;4.00;8.70;;;;;;4965496;28;20481;-76
2023/12/08 05:36:34;;;;;;;12.70;8.93;;;4.00;10.40;;;;;;4969596;28;20114;-76
2023/12/08 05:39:00;;;;;;;11.23;9.32;;;4.00;11.00;;;;;;4966140;28;20490;-76
2023/12/08 05:41:26;;;;;;;9.93;9.00;;;4.10;8.80;;;;;;4967157;28;20030;-76
2023/12/08 05:43:51;;;;;;;10.50;8.52;;;4.10;3.30;;;;;;4967579;28;20019;-76
2023/12/08 05:46:17;;;;;;;11.23;9.05;;;4.10;1.00;;;;;;4967367;28;20466;-77
2023/12/08 05:48:42;;;;;;;8.98;8.13;;;4.10;1.00;;;;;;4965367;28;20504;-76
2023/12/08 05:51:08;;;;;;;8.45;7.68;;;4.10;1.00;;;;;;4963417;28;20025;-76
2023/12/08 05:53:34;;;;;;;11.88;9.07;;;4.20;1.00;;;;;;4950517;28;20027;-76
2023/12/08 05:55:59;;;;;;;10.05;8.70;;;4.20;1.00;;;;;;4966213;28;20508;-76
2023/12/08 05:58:25;;;;;;;9.13;8.13;;;4.30;1.00;;;;;;4954809;29;20019;-76
2023/12/08 06:00:51;;;;;;;10.27;8.93;;;4.30;1.00;;;;;;4966744;28;20389;-76
2023/12/08 06:03:16;;;;;;;9.98;8.90;;;4.30;1.00;;;;;;4966843;28;20389;-76
2023/12/08 06:05:42;;;;;;;10.57;8.88;;;4.40;1.00;;;;;;4965563;28;20073;-77
2023/12/08 06:08:08;;;;;;;13.07;9.60;;;4.40;1.00;;;;;;4967074;28;20026;-76
2023/12/08 06:10:34;;;;;;;12.10;9.52;;;4.40;1.00;;;;;;4964244;28;20057;-76
2023/12/08 06:13:00;;;;;;;13.55;9.38;;;4.40;1.00;;;;;;4965597;28;20096;-76
2023/12/08 06:15:25;;;;;;;10.27;8.85;;;4.40;1.00;;;;;;4967115;28;20034;-76
2023/12/08 06:17:51;;;;;;;9.88;8.50;;;4.40;1.00;;;;;;4951428;28;20077;-76
2023/12/08 06:20:16;;;;;;;9.98;8.85;;;4.50;1.00;;;;;;4968576;28;20019;-77
2023/12/08 06:22:43;;;;;;;9.98;8.60;;;4.50;1.00;;;;;;4956921;28;20031;-77
2023/12/08 06:25:08;;;;;;;11.23;9.10;;;4.50;1.00;;;;;;4965381;28;20037;-76
2023/12/08 06:27:35;;;;;;;10.10;9.18;;;4.50;1.00;;;;;;4970975;28;20023;-76
2023/12/08 06:30:01;;;;;;;9.85;8.68;;;4.50;1.00;;;;;;4963864;28;20023;-76
2023/12/08 06:32:30;;;;;;;9.80;8.60;;;4.60;1.00;;;;;;4948903;28;20109;-76
2023/12/08 06:34:55;;;;;;;10.82;8.48;;;4.60;1.00;;;;;;4964288;28;20394;-76
2023/12/08 06:37:21;;;;;;;10.68;9.57;;;4.60;1.00;;;;;;4969826;28;20034;-76
2023/12/08 06:39:47;;;;;;;13.43;9.02;;;4.60;1.00;;;;;;4962481;28;20146;-77
2023/12/08 06:42:13;;;;;;;13.18;9.60;;;4.60;1.00;;;;;;4956648;28;20066;-76
2023/12/08 06:44:38;;;;;;;10.45;9.25;;;4.60;1.00;;;;;;4964993;28;20038;-76
2023/12/08 06:47:04;;;;;;;9.63;8.57;;;4.60;1.00;;;;;;4967200;28;20031;-77
2023/12/08 06:49:30;;;;;;;11.23;9.35;;;4.60;1.00;;;;;;4966121;28;20031;-77
2023/12/08 06:51:56;;;;;;;11.93;9.32;;;4.60;1.00;;;;;;4948938;28;20039;-77
2023/12/08 06:54:22;;;;;;;15.18;9.35;;;4.70;1.00;;;;;;4963007;28;20405;-77
2023/12/08 06:56:47;;;;;;;13.07;8.90;;;4.70;1.00;;;;;;4966519;28;20034;-76
2023/12/08 06:59:14;;;;;;;13.60;8.98;;;4.60;12.20;;;;;;4953707;28;20495;-77
2023/12/08 07:01:40;;;;;;;13.98;9.60;;;4.60;32.00;;;;;;4965632;28;20029;-77
2023/12/08 07:04:06;;;;;;;12.93;9.77;;;4.60;19.50;;;;;;4948123;28;20023;-77
2023/12/08 07:06:32;;;;;;;12.35;9.45;;;4.60;8.80;;;;;;4967774;28;20432;-77
2023/12/08 07:08:59;;;;;;;10.57;8.75;;;4.60;1.80;;;;;;4954971;28;20079;-77
2023/12/08 07:11:24;;;;;;;13.27;9.18;;;4.60;8.70;;;;;;4967213;28;20259;-77
2023/12/08 07:13:50;;;;;;;14.05;9.30;;;4.60;17.30;;;;;;4945463;29;20374;-76
2023/12/08 07:16:16;;;;;;;25.33;16.15;;;4.70;13.40;;;;;;4966917;28;20055;-77
2023/12/08 07:18:42;;;;;;;25.58;19.30;;;4.70;14.20;;;;;;4947501;28;20571;-77
2023/12/08 07:21:07;;;;;;;25.67;19.00;;;4.60;16.90;;;;;;4964941;28;20586;-77
2023/12/08 07:23:33;;;;;;;25.25;17.48;;;4.70;18.10;;;;;;4964731;28;20519;-77
2023/12/08 07:26:00;;;;;;;19.67;15.18;;;4.70;15.20;;;;;;4963585;28;20070;-78
2023/12/08 07:28:25;;;;;;;16.88;13.38;;;4.70;9.60;;;;;;4966137;28;20019;-76
2023/12/08 07:30:51;;;;;;;14.25;10.98;;;4.70;1.00;;;;;;4961686;28;20030;-77
2023/12/08 07:33:17;;;;;;;12.20;9.43;;;4.70;4.20;;;;;;4966059;28;20101;-76
2023/12/08 07:35:42;;;;;;;10.68;9.00;;;4.70;1.20;;;;;;4965539;28;20409;-76
2023/12/08 07:38:08;;;;;;;10.75;8.68;;;4.80;2.00;;;;;;4948457;28;20027;-77
2023/12/08 07:40:34;;;;;;;11.27;8.93;;;4.80;1.00;;;;;;4947687;28;20467;-76
2023/12/08 07:42:59;;;;;;;17.20;13.05;;;4.80;1.70;;;;;;4963855;28;20027;-77
2023/12/08 07:45:25;;;;;;;17.35;10.70;;;4.80;10.10;;;;;;4947884;28;20026;-76
2023/12/08 07:47:51;;;;;;;14.93;9.13;;;4.80;2.40;;;;;;4966961;28;20039;-77
2023/12/08 07:50:17;;;;;;;12.63;8.93;;;4.80;1.00;;;;;;4944928;28;20489;-76
2023/12/08 07:52:42;;;;;;;8.77;7.88;;;4.90;1.00;;;;;;4965629;28;20064;-76
2023/12/08 07:55:09;;;;;;;9.68;8.23;;;4.90;1.00;;;;;;4963725;28;20023;-76
2023/12/08 07:57:34;;;;;;;7.90;7.10;;;4.90;1.00;;;;;;4950182;28;20027;-76
2023/12/08 08:00:00;;;;;;;7.82;7.03;;;4.90;1.00;;;;;;4964416;28;20034;-77
2023/12/08 08:02:26;;;;;;;9.88;8.95;;;5.00;1.00;;;;;;4955090;28;20081;-76
2023/12/08 08:04:52;;;;;;;14.60;10.07;;;5.00;1.00;;;;;;4962210;28;20049;-77
2023/12/08 08:07:18;;;;;;;10.95;9.82;;;5.00;1.00;;;;;;4947013;28;20023;-77
2023/12/08 08:09:43;;;;;;;13.65;10.00;;;5.00;1.20;;;;;;4952254;28;20118;-76
2023/12/08 08:12:09;;;;;;;13.98;9.60;;;5.00;19.30;;;;;;4953396;28;20062;-77
2023/12/08 08:14:35;;;;;;;14.52;9.27;;;5.00;20.00;;;;;;4963331;28;20031;-76
2023/12/08 08:17:04;;;;;;;8.77;7.82;;;5.00;23.40;;;;;;4963716;28;20035;-77
2023/12/08 08:19:29;;;;;;;12.60;9.23;;;5.10;24.40;;;;;;4964071;28;20031;-76
2023/12/08 08:21:55;;;;;;;16.27;9.85;;;5.10;21.50;;;;;;4962970;28;20031;-77
2023/12/08 08:24:21;;;;;;;16.33;9.77;;;5.10;16.60;;;;;;4965244;28;20027;-76
2023/12/08 08:26:47;;;;;;;10.90;9.52;;;5.20;12.90;;;;;;4965683;28;20026;-76
2023/12/08 08:29:13;;;;;;;11.15;8.95;;;5.20;11.50;;;;;;4944761;28;20094;-76
2023/12/08 08:31:39;;;;;;;15.60;10.45;;;5.20;2.30;;;;;;4967148;28;20465;-76
2023/12/08 08:34:05;;;;;;;30.88;13.27;;;5.30;5.90;;;;;;4945668;28;20074;-77
2023/12/08 08:36:31;;;;;;;16.38;10.20;;;5.30;4.70;;;;;;4949185;28;20061;-76
2023/12/08 08:38:57;;;;;;;16.88;11.57;;;5.40;7.90;;;;;;4963939;28;20035;-76
2023/12/08 08:41:23;;;;;;;22.45;15.40;;;5.50;11.30;;;;;;4964987;28;20034;-76
2023/12/08 08:43:50;;;;;;;18.10;13.32;;;5.50;18.30;;;;;;4964937;28;20023;-77
2023/12/08 08:46:16;;;;;;;19.40;14.73;;;5.50;22.10;;;;;;4953509;28;20019;-77
2023/12/08 08:48:42;;;;;;;20.02;16.13;;;5.50;20.30;;;;;;4965661;28;20374;-77
2023/12/08 08:51:08;;;;;;;20.40;16.30;;;5.60;20.60;;;;;;4967394;28;20081;-77
2023/12/08 08:53:37;;;;;;;19.80;16.42;;;5.60;13.00;;;;;;4962645;28;20105;-76
2023/12/08 08:56:03;;;;;;;15.80;13.98;;;5.60;22.20;;;;;;4963506;28;20038;-76
2023/12/08 08:58:29;;;;;;;18.63;12.02;;;5.60;28.80;;;;;;4963223;28;20023;-78
2023/12/08 09:00:55;;;;;;;14.50;12.95;;;5.60;20.30;;;;;;4961654;28;20413;-77
2023/12/08 09:03:20;;;;;;;19.88;16.02;;;5.60;24.90;;;;;;4955138;28;20026;-77
2023/12/08 09:05:46;;;;;;;24.70;17.67;;;5.70;37.10;;;;;;4963982;28;20025;-77
2023/12/08 09:08:12;;;;;;;24.27;19.45;;;5.70;52.60;;;;;;4963863;28;20457;-77
2023/12/08 09:10:38;;;;;;;27.10;22.10;;;5.70;60.90;;;;;;4964961;28;20027;-76
2023/12/08 09:13:04;;;;;;;26.50;22.15;;;5.70;71.10;;;;;;4964201;28;20027;-77
2023/12/08 09:15:30;;;;;;;47.90;27.08;;;5.80;81.60;;;;;;4963082;28;20030;-77
2023/12/08 09:17:56;;;;;;;31.52;23.02;;;5.80;83.70;;;;;;4953075;28;20394;-77
2023/12/08 09:20:23;;;;;;;34.40;24.88;;;5.80;65.90;;;;;;4963994;28;20027;-76
2023/12/08 09:22:50;;;;;;;33.97;25.77;;;5.80;51.20;;;;;;4961588;28;20058;-77
2023/12/08 09:25:17;;;;;;;39.88;26.15;;;5.80;46.20;;;;;;4964107;28;20074;-77
2023/12/08 09:27:44;;;;;;;35.35;23.58;;;5.60;45.20;;;;;;4951651;28;20184;-77
2023/12/08 09:30:10;;;;;;;32.50;25.50;;;5.60;41.00;;;;;;4967349;28;20102;-77
2023/12/08 09:32:35;;;;;;;33.58;24.73;;;5.70;38.80;;;;;;4948701;28;20057;-76
2023/12/08 09:35:01;;;;;;;34.70;24.15;;;5.70;36.50;;;;;;4947143;29;20027;-76
2023/12/08 09:37:27;;;;;;;40.17;25.85;;;5.80;34.40;;;;;;4952029;28;20118;-77
2023/12/08 09:39:53;;;;;;;40.80;27.25;;;5.80;46.00;;;;;;4953343;28;20122;-77
2023/12/08 09:42:29;;;;;;;36.55;26.25;;;5.80;53.80;;;;;;4967939;28;20042;-77
2023/12/08 09:44:55;;;;;;;38.63;28.52;;;5.90;53.20;;;;;;4965246;28;20478;-78
2023/12/08 09:47:24;;;;;;;38.67;28.70;;;5.90;49.20;;;;;;4967714;28;20034;-77
2023/12/08 09:49:52;;;;;;;41.25;29.92;;;5.90;40.60;;;;;;4964374;28;20470;-78
2023/12/08 09:52:17;;;;;;;39.70;28.80;;;6.00;48.00;;;;;;4967743;28;20106;-77
2023/12/08 09:54:44;;;;;;;43.22;29.60;;;6.00;42.10;;;;;;4964255;28;20114;-77
2023/12/08 09:57:10;;;;;;;39.70;29.75;;;6.00;38.60;;;;;;4967366;28;20058;-78
2023/12/08 09:59:38;;;;;;;41.85;30.38;;;6.10;45.10;;;;;;4946066;28;20067;-78
2023/12/08 10:02:07;;;;;;;40.75;29.83;;;6.10;40.70;;;;;;4968612;28;20027;-78
2023/12/08 10:04:34;;;;;;;41.00;29.55;;;6.10;46.80;;;;;;4948744;28;20416;-77
2023/12/08 10:07:03;;;;;;;43.63;31.30;;;6.20;42.40;;;;;;4966740;28;20031;-77
2023/12/08 10:09:30;;;;;;;48.13;32.42;;;6.20;57.30;;;;;;4967312;28;20089;-78
2023/12/08 10:11:56;;;;;;;55.55;42.65;;;6.20;73.00;;;;;;4969458;28;20030;-76
2023/12/08 10:14:25;;;;;;;60.80;42.90;;;6.20;71.80;;;;;;4968345;28;20392;-77
2023/12/08 10:16:51;;;;;;;44.22;34.20;;;6.30;70.60;;;;;;4957351;28;20469;-78
2023/12/08 10:19:21;;;;;;;41.78;32.20;;;6.30;76.00;;;;;;4967014;28;20038;-76
2023/12/08 10:22:01;;;;;;;45.20;33.50;;;6.30;68.80;;;;;;4970331;28;20041;-77
2023/12/08 10:24:31;;;;;;;35.47;26.23;;;6.20;81.20;;;;;;4955866;28;20166;-76
2023/12/08 10:27:00;;;;;;;34.47;26.42;;;6.20;72.60;;;;;;4966398;28;20031;-77
2023/12/08 10:29:32;;;;;;;33.88;26.60;;;6.30;59.30;;;;;;4966623;28;20023;-77
2023/12/08 10:31:58;;;;;;;34.35;25.08;;;6.30;74.00;;;;;;4965997;28;20058;-77
2023/12/08 10:34:25;;;;;;;36.80;27.95;;;6.20;42.90;;;;;;4965662;28;20034;-77
2023/12/08 10:36:55;;;;;;;35.40;26.63;;;6.30;68.90;;;;;;4967011;28;20049;-77
2023/12/08 10:39:20;;;;;;;37.28;27.42;;;6.30;67.30;;;;;;4956633;28;20027;-77
2023/12/08 10:41:50;;;;;;;30.73;25.88;;;6.30;57.40;;;;;;4953751;28;20520;-76
2023/12/08 10:44:21;;;;;;;28.88;22.00;;;6.40;60.50;;;;;;4961979;28;20070;-76
2023/12/08 10:46:50;;;;;;;28.02;21.67;;;6.40;58.60;;;;;;4966230;28;20027;-77
2023/12/08 10:49:20;;;;;;;27.63;21.25;;;6.40;56.60;;;;;;4954090;28;20393;-76
2023/12/08 10:51:49;;;;;;;28.80;23.38;;;6.50;49.40;;;;;;4972878;28;20400;-77
2023/12/08 10:54:16;;;;;;;31.20;22.08;;;6.50;43.40;;;;;;4954205;28;20086;-77
2023/12/08 10:56:46;;;;;;;28.38;21.60;;;6.50;47.10;;;;;;4966607;28;20366;-77
2023/12/08 10:59:23;;;;;;;26.95;21.10;;;6.50;36.20;;;;;;4962857;28;20496;-77
2023/12/08 11:01:51;;;;;;;28.38;18.88;;;6.50;57.80;;;;;;4966780;28;20030;-77
2023/12/08 11:04:23;;;;;;;29.25;18.17;;;6.50;70.00;;;;;;4966793;28;20023;-77
2023/12/08 11:07:08;;;;;;;28.55;18.02;;;6.50;65.80;;;;;;4963280;28;20027;-77
2023/12/08 11:09:38;;;;;;;24.67;15.07;;;6.60;74.40;;;;;;4969771;28;20481;-77
2023/12/08 11:12:06;;;;;;;18.98;13.75;;;6.50;54.10;;;;;;4967001;28;20114;-77
2023/12/08 11:14:39;;;;;;;20.63;13.32;;;6.50;44.70;;;;;;4965033;28;20023;-77
2023/12/08 11:17:16;;;;;;;17.20;13.40;;;6.50;48.20;;;;;;4967249;28;20552;-77
2023/12/08 11:19:42;;;;;;;18.80;12.75;;;6.50;59.00;;;;;;4955494;28;20027;-76
2023/12/08 11:22:09;;;;;;;18.65;13.35;;;6.60;73.80;;;;;;4972407;28;20109;-77
2023/12/08 11:24:36;;;;;;;15.15;12.40;;;6.60;36.20;;;;;;4966357;28;20086;-78
2023/12/08 11:27:35;;;;;;;19.27;14.00;;;6.60;34.20;;;;;;4966826;28;20030;-77
2023/12/08 11:30:01;;;;;;;19.88;12.80;;;6.60;49.10;;;;;;4920075;28;20103;-78
2023/12/08 11:32:34;;;;;;;12.55;11.00;;;6.70;48.00;;;;;;4972523;28;20054;-77
2023/12/08 11:34:59;;;;;;;11.27;10.13;;;6.60;27.60;;;;;;4963427;28;20110;-77
2023/12/08 11:37:28;;;;;;;13.40;10.73;;;6.60;54.30;;;;;;4967763;28;20114;-77
2023/12/08 11:40:12;;;;;;;14.85;10.50;;;6.70;54.20;;;;;;4954603;28;20160;-77
2023/12/08 11:42:39;;;;;;;13.57;11.68;;;6.70;57.80;;;;;;4972151;28;20444;-77
2023/12/08 11:45:09;;;;;;;16.17;12.10;;;6.80;65.80;;;;;;4965153;28;20078;-77
2023/12/08 11:47:35;;;;;;;13.52;11.57;;;6.80;83.60;;;;;;4968065;28;20456;-77
2023/12/08 11:50:03;;;;;;;12.55;11.18;;;6.80;76.70;;;;;;4962859;28;20029;-77
2023/12/08 11:52:37;;;;;;;12.20;11.00;;;6.80;59.60;;;;;;4967797;28;20030;-77
2023/12/08 11:55:19;;;;;;;14.30;12.50;;;6.80;40.40;;;;;;4960908;28;20106;-78
2023/12/08 11:57:54;;;;;;;15.55;12.48;;;6.80;55.90;;;;;;4946233;28;20489;-77
2023/12/08 12:00:22;;;;;;;14.75;12.60;;;6.80;50.30;;;;;;4946883;28;20396;-77
2023/12/08 12:02:51;;;;;;;15.70;11.73;;;6.80;56.80;;;;;;4956553;28;20030;-77
2023/12/08 12:05:17;;;;;;;17.15;11.93;;;6.80;65.10;;;;;;4961782;28;20027;-77
2023/12/08 12:07:49;;;;;;;13.23;11.68;;;6.90;78.50;;;;;;4965709;28;20046;-77
2023/12/08 12:10:23;;;;;;;13.98;11.85;;;6.90;91.70;;;;;;4965624;28;20106;-77
2023/12/08 12:13:13;;;;;;;13.90;11.95;;;6.90;60.00;;;;;;4967453;28;20085;-77
2023/12/08 12:15:41;;;;;;;16.42;13.18;;;6.80;54.80;;;;;;4944330;29;20402;-77
2023/12/08 12:18:07;;;;;;;16.95;13.50;;;6.90;65.20;;;;;;4948391;28;20037;-76
2023/12/08 12:20:34;;;;;;;17.55;15.65;;;6.90;61.50;;;;;;4965637;28;20035;-77
2023/12/08 12:23:00;;;;;;;17.45;13.82;;;6.90;76.70;;;;;;4962976;28;20035;-76
2023/12/08 12:25:26;;;;;;;20.00;15.80;;;6.90;83.30;;;;;;4963926;28;20031;-77
2023/12/08 12:27:53;;;;;;;25.15;18.55;;;6.90;85.90;;;;;;4946020;28;20134;-76
2023/12/08 12:30:20;;;;;;;26.58;19.92;;;7.00;88.00;;;;;;4953837;28;20039;-77
2023/12/08 12:32:48;;;;;;;27.23;18.17;;;7.00;82.00;;;;;;4967039;28;20053;-77
2023/12/08 12:35:14;;;;;;;23.67;17.65;;;7.00;78.00;;;;;;4962138;28;20063;-76
2023/12/08 12:37:41;;;;;;;22.58;18.15;;;7.00;83.20;;;;;;4968093;28;20061;-77
2023/12/08 12:40:07;;;;;;;22.88;17.88;;;6.90;71.40;;;;;;4971700;28;20023;-77
2023/12/08 12:42:47;;;;;;;24.65;16.20;;;7.00;80.60;;;;;;4968155;28;20062;-76
2023/12/08 12:45:29;;;;;;;31.65;18.30;;;7.00;84.60;;;;;;4946601;28;20086;-76
2023/12/08 12:48:03;;;;;;;19.98;17.02;;;7.00;88.80;;;;;;4968614;28;20489;-77
2023/12/08 12:50:29;;;;;;;24.45;17.73;;;7.00;71.50;;;;;;4968117;28;20085;-77